createdAt,value
2018-01-20T00:00:28.201Z,34.70
2018-01-20T00:01:28.191Z,35.30
2018-01-20T00:02:28.171Z,35.10
2018-01-20T00:03:28.180Z,40.40
2018-01-20T00:04:28.163Z,36.50
2018-01-20T00:05:28.131Z,36.10
2018-01-20T00:06:28.122Z,38.40
2018-01-20T00:07:28.112Z,33.90
2018-01-20T00:08:28.091Z,31.70
2018-01-20T00:09:28.093Z,32.00
2018-01-20T00:10:28.106Z,37.10
2018-01-20T00:11:28.052Z,36.90
2018-01-20T00:12:28.041Z,34.30
2018-01-20T00:13:28.031Z,32.20
2018-01-20T00:14:28.017Z,35.80
2018-01-20T00:15:28.005Z,33.40
2018-01-20T00:16:27.986Z,35.40
2018-01-20T00:17:27.976Z,33.60
2018-01-20T00:18:27.963Z,36.00
2018-01-20T00:19:27.961Z,32.80
2018-01-20T00:20:27.945Z,33.80
2018-01-20T00:21:27.925Z,33.70
2018-01-20T00:22:27.914Z,34.50
2018-01-20T00:23:27.913Z,34.80
2018-01-20T00:24:27.898Z,35.80
2018-01-20T00:25:27.890Z,34.90
2018-01-20T00:26:27.876Z,38.50
2018-01-20T00:27:27.848Z,32.50
2018-01-20T00:28:27.839Z,36.10
2018-01-20T00:29:27.822Z,32.70
2018-01-20T00:30:27.808Z,32.60
2018-01-20T00:31:27.801Z,33.90
2018-01-20T00:32:27.796Z,35.70
2018-01-20T00:33:27.787Z,35.10
2018-01-20T00:34:27.761Z,37.20
2018-01-20T00:35:27.746Z,30.60
2018-01-20T00:36:27.733Z,32.60
2018-01-20T00:37:27.717Z,35.30
2018-01-20T00:38:27.711Z,31.30
2018-01-20T00:39:27.709Z,36.40
2018-01-20T00:40:27.682Z,31.90
2018-01-20T00:41:27.670Z,36.60
2018-01-20T00:42:27.655Z,36.80
2018-01-20T00:43:27.645Z,38.00
2018-01-20T00:44:27.643Z,38.60
2018-01-20T00:45:27.621Z,35.80
2018-01-20T00:46:27.661Z,36.40
2018-01-20T00:47:27.602Z,34.90
2018-01-20T00:48:27.581Z,36.60
2018-01-20T00:49:27.571Z,36.00
2018-01-20T00:50:27.556Z,37.00
2018-01-20T00:51:27.536Z,39.20
2018-01-20T00:52:27.539Z,41.30
2018-01-20T00:53:27.524Z,37.40
2018-01-20T00:54:27.528Z,34.80
2018-01-20T00:55:27.488Z,36.70
2018-01-20T00:56:27.480Z,37.10
2018-01-20T00:57:27.468Z,34.20
2018-01-20T00:58:27.451Z,34.70
2018-01-20T00:59:27.459Z,34.20
2018-01-20T01:00:27.420Z,37.30
2018-01-20T01:01:27.419Z,33.50
2018-01-20T01:02:27.398Z,32.70
2018-01-20T01:03:27.388Z,32.10
2018-01-20T01:04:27.371Z,33.60
2018-01-20T01:05:27.388Z,30.10
2018-01-20T01:06:27.380Z,31.90
2018-01-20T01:07:27.338Z,33.00
2018-01-20T01:08:27.323Z,38.30
2018-01-20T01:09:27.321Z,33.40
2018-01-20T01:10:27.300Z,34.70
2018-01-20T01:11:27.295Z,34.40
2018-01-20T01:12:27.284Z,35.00
2018-01-20T01:13:27.259Z,33.10
2018-01-20T01:14:27.243Z,34.30
2018-01-20T01:15:27.234Z,37.90
2018-01-20T01:16:27.222Z,33.80
2018-01-20T01:17:27.208Z,34.00
2018-01-20T01:18:27.191Z,32.50
2018-01-20T01:19:27.178Z,33.10
2018-01-20T01:20:27.167Z,42.80
2018-01-20T01:21:27.172Z,35.40
2018-01-20T01:22:27.144Z,36.20
2018-01-20T01:23:27.138Z,33.00
2018-01-20T01:24:27.118Z,37.70
2018-01-20T01:25:27.108Z,32.00
2018-01-20T01:26:27.101Z,34.70
2018-01-20T01:27:27.084Z,33.40
2018-01-20T01:28:27.068Z,32.60
2018-01-20T01:29:27.061Z,35.40
2018-01-20T01:30:27.039Z,31.80
2018-01-20T01:31:27.032Z,32.70
2018-01-20T01:32:27.018Z,38.10
2018-01-20T01:33:27.023Z,35.70
2018-01-20T01:34:27.002Z,34.80
2018-01-20T01:35:26.990Z,35.00
2018-01-20T01:36:26.966Z,32.90
2018-01-20T01:37:26.961Z,34.70
2018-01-20T01:38:26.941Z,34.40
2018-01-20T01:39:26.937Z,35.90
2018-01-20T01:40:26.942Z,34.60
2018-01-20T01:41:26.926Z,31.20
2018-01-20T01:42:26.903Z,29.90
2018-01-20T01:43:26.876Z,29.70
2018-01-20T01:44:26.864Z,32.20
2018-01-20T01:45:26.853Z,32.30
2018-01-20T01:46:26.836Z,31.30
2018-01-20T01:47:26.829Z,30.20
2018-01-20T01:48:26.817Z,28.20
2018-01-20T01:49:26.826Z,28.50
2018-01-20T01:50:26.788Z,28.30
2018-01-20T01:51:26.771Z,28.80
2018-01-20T01:52:26.762Z,31.50
2018-01-20T01:53:26.744Z,30.80
2018-01-20T01:54:26.750Z,33.80
2018-01-20T01:55:26.724Z,33.50
2018-01-20T01:56:26.717Z,30.40
2018-01-20T01:57:26.708Z,32.00
2018-01-20T01:58:26.688Z,27.70
2018-01-20T01:59:26.670Z,28.10
2018-01-20T02:00:26.655Z,29.40
2018-01-20T02:01:26.647Z,26.60
2018-01-20T02:02:26.637Z,29.30
2018-01-20T02:03:26.621Z,28.10
2018-01-20T02:04:26.620Z,29.00
2018-01-20T02:05:26.596Z,29.90
2018-01-20T02:06:26.593Z,26.70
2018-01-20T02:07:26.572Z,25.40
2018-01-20T02:08:26.593Z,26.10
2018-01-20T02:09:26.572Z,25.90
2018-01-20T02:10:26.543Z,26.00
2018-01-20T02:11:26.540Z,24.00
2018-01-20T02:12:26.505Z,24.10
2018-01-20T02:13:26.505Z,26.30
2018-01-20T02:14:26.479Z,23.20
2018-01-20T02:15:26.526Z,27.50
2018-01-20T02:16:26.455Z,25.30
2018-01-20T02:17:26.473Z,23.90
2018-01-20T02:18:26.447Z,28.40
2018-01-20T02:19:26.414Z,23.30
2018-01-20T02:20:26.404Z,27.30
2018-01-20T02:21:26.393Z,24.20
2018-01-20T02:22:26.387Z,25.40
2018-01-20T02:23:26.366Z,25.30
2018-01-20T02:24:26.352Z,22.60
2018-01-20T02:25:26.352Z,21.50
2018-01-20T02:26:26.326Z,19.50
2018-01-20T02:27:26.317Z,22.60
2018-01-20T02:28:26.303Z,22.20
2018-01-20T02:29:26.289Z,24.00
2018-01-20T02:30:26.275Z,20.40
2018-01-20T02:31:26.276Z,22.90
2018-01-20T02:32:26.270Z,18.70
2018-01-20T02:33:26.242Z,21.20
2018-01-20T02:34:26.227Z,22.00
2018-01-20T02:35:26.214Z,26.10
2018-01-20T02:36:26.217Z,22.40
2018-01-20T02:37:26.193Z,21.30
2018-01-20T02:38:26.182Z,23.80
2018-01-20T02:39:26.174Z,21.30
2018-01-20T02:40:26.148Z,21.80
2018-01-20T02:41:26.138Z,21.30
2018-01-20T02:42:26.136Z,19.30
2018-01-20T02:43:26.115Z,22.70
2018-01-20T02:44:26.124Z,23.10
2018-01-20T02:45:26.090Z,22.00
2018-01-20T02:46:26.072Z,25.00
2018-01-20T02:47:26.056Z,20.20
2018-01-20T02:48:26.048Z,21.90
2018-01-20T02:49:26.034Z,22.40
2018-01-20T02:50:26.024Z,22.40
2018-01-20T02:51:26.017Z,28.90
2018-01-20T02:52:25.999Z,24.90
2018-01-20T02:53:25.987Z,26.40
2018-01-20T02:54:25.975Z,24.00
2018-01-20T02:55:25.955Z,23.60
2018-01-20T02:56:25.944Z,24.40
2018-01-20T02:57:25.945Z,24.60
2018-01-20T02:58:25.923Z,22.90
2018-01-20T02:59:25.920Z,24.70
2018-01-20T03:00:25.895Z,23.50
2018-01-20T03:01:25.887Z,22.30
2018-01-20T03:02:25.868Z,23.90
2018-01-20T03:03:25.855Z,22.70
2018-01-20T03:04:25.845Z,22.90
2018-01-20T03:05:25.837Z,23.90
2018-01-20T03:06:25.818Z,22.00
2018-01-20T03:07:25.802Z,19.20
2018-01-20T03:08:25.804Z,22.80
2018-01-20T03:09:25.821Z,21.70
2018-01-20T03:10:25.770Z,23.70
2018-01-20T03:11:25.752Z,24.40
2018-01-20T03:12:25.749Z,24.00
2018-01-20T03:13:25.734Z,24.30
2018-01-20T03:14:25.714Z,24.00
2018-01-20T03:15:25.704Z,24.40
2018-01-20T03:16:25.685Z,24.80
2018-01-20T03:17:25.679Z,22.20
2018-01-20T03:18:25.669Z,22.00
2018-01-20T03:19:25.649Z,23.50
2018-01-20T03:20:25.643Z,22.00
2018-01-20T03:21:25.627Z,25.90
2018-01-20T03:22:25.614Z,23.20
2018-01-20T03:23:25.600Z,23.60
2018-01-20T03:24:25.592Z,25.80
2018-01-20T03:25:25.586Z,26.20
2018-01-20T03:26:25.562Z,26.00
2018-01-20T03:27:25.548Z,24.60
2018-01-20T03:28:25.539Z,22.10
2018-01-20T03:29:25.528Z,23.10
2018-01-20T03:30:25.512Z,29.10
2018-01-20T03:31:25.500Z,33.00
2018-01-20T03:32:25.488Z,26.90
2018-01-20T03:33:25.478Z,24.60
2018-01-20T03:34:25.460Z,22.40
2018-01-20T03:35:25.448Z,26.90
2018-01-20T03:36:25.437Z,25.50
2018-01-20T03:37:25.423Z,28.30
2018-01-20T03:38:25.413Z,27.40
2018-01-20T03:39:25.399Z,24.30
2018-01-20T03:40:25.388Z,25.10
2018-01-20T03:41:25.370Z,27.30
2018-01-20T03:42:25.360Z,26.70
2018-01-20T03:43:25.349Z,26.10
2018-01-20T03:44:25.332Z,25.10
2018-01-20T03:45:25.336Z,26.40
2018-01-20T03:46:25.349Z,23.20
2018-01-20T03:47:25.302Z,22.40
2018-01-20T03:48:25.283Z,24.20
2018-01-20T03:49:25.275Z,25.70
2018-01-20T03:50:25.258Z,24.10
2018-01-20T03:51:25.243Z,24.90
2018-01-20T03:52:25.232Z,24.00
2018-01-20T03:53:25.235Z,24.40
2018-01-20T03:54:25.210Z,22.70
2018-01-20T03:55:25.196Z,22.90
2018-01-20T03:56:25.181Z,26.30
2018-01-20T03:57:25.169Z,22.50
2018-01-20T03:58:25.162Z,24.50
2018-01-20T03:59:25.144Z,25.30
2018-01-20T04:00:25.137Z,25.80
2018-01-20T04:01:25.213Z,26.80
2018-01-20T04:02:25.105Z,24.60
2018-01-20T04:03:25.090Z,28.70
2018-01-20T04:04:25.085Z,27.40
2018-01-20T04:05:25.071Z,24.10
2018-01-20T04:06:25.059Z,23.30
2018-01-20T04:07:25.055Z,25.90
2018-01-20T04:08:25.038Z,24.20
2018-01-20T04:09:25.026Z,24.00
2018-01-20T04:10:25.003Z,22.60
2018-01-20T04:11:24.994Z,25.70
2018-01-20T04:12:24.974Z,27.50
2018-01-20T04:13:24.987Z,25.60
2018-01-20T04:14:24.953Z,24.60
2018-01-20T04:15:24.956Z,28.00
2018-01-20T04:16:24.927Z,28.10
2018-01-20T04:17:24.912Z,24.30
2018-01-20T04:18:24.904Z,26.20
2018-01-20T04:19:24.884Z,27.00
2018-01-20T04:20:24.875Z,24.00
2018-01-20T04:21:24.862Z,25.10
2018-01-20T04:22:24.850Z,24.60
2018-01-20T04:23:24.836Z,25.00
2018-01-20T04:24:24.830Z,22.70
2018-01-20T04:25:24.812Z,23.30
2018-01-20T04:26:24.797Z,25.60
2018-01-20T04:27:24.789Z,27.20
2018-01-20T04:28:24.776Z,24.00
2018-01-20T04:29:24.766Z,21.10
2018-01-20T04:30:24.772Z,26.50
2018-01-20T04:31:24.744Z,26.80
2018-01-20T04:32:24.727Z,23.80
2018-01-20T04:33:24.707Z,24.30
2018-01-20T04:34:24.698Z,25.30
2018-01-20T04:35:24.682Z,22.60
2018-01-20T04:36:24.680Z,23.60
2018-01-20T04:37:24.662Z,22.70
2018-01-20T04:38:24.645Z,22.60
2018-01-20T04:39:24.637Z,23.70
2018-01-20T04:40:24.623Z,22.10
2018-01-20T04:41:24.619Z,26.50
2018-01-20T04:42:24.599Z,26.80
2018-01-20T04:43:24.597Z,25.20
2018-01-20T04:44:24.567Z,27.00
2018-01-20T04:45:24.558Z,27.70
2018-01-20T04:46:24.546Z,27.10
2018-01-20T04:47:24.526Z,29.00
2018-01-20T04:48:24.528Z,27.40
2018-01-20T04:49:24.509Z,27.90
2018-01-20T04:50:24.489Z,28.90
2018-01-20T04:51:24.485Z,33.30
2018-01-20T04:53:57.733Z,32.10
2018-01-20T04:54:57.691Z,26.40
2018-01-20T04:56:51.455Z,29.00
2018-01-20T04:57:51.401Z,29.80
2018-01-20T04:59:45.142Z,30.90
2018-01-20T05:00:45.124Z,32.00
2018-01-20T05:02:38.860Z,29.50
2018-01-20T05:03:38.813Z,30.00
2018-01-20T05:04:38.800Z,33.50
2018-01-20T05:05:38.794Z,31.00
2018-01-20T05:06:38.777Z,32.20
2018-01-20T05:07:38.767Z,36.40
2018-01-20T05:08:38.753Z,31.10
2018-01-20T05:09:38.739Z,31.20
2018-01-20T05:10:38.728Z,29.40
2018-01-20T05:11:38.716Z,32.50
2018-01-20T05:12:38.705Z,34.20
2018-01-20T05:13:38.688Z,35.90
2018-01-20T05:14:38.679Z,30.60
2018-01-20T05:15:38.665Z,36.40
2018-01-20T05:16:38.650Z,36.00
2018-01-20T05:17:38.640Z,34.70
2018-01-20T05:18:38.639Z,33.00
2018-01-20T05:19:38.618Z,33.70
2018-01-20T05:20:38.600Z,36.00
2018-01-20T05:21:38.588Z,38.20
2018-01-20T05:22:38.598Z,40.50
2018-01-20T05:23:38.558Z,40.20
2018-01-20T05:24:38.551Z,36.50
2018-01-20T05:25:38.541Z,37.10
2018-01-20T05:26:38.529Z,40.30
2018-01-20T05:27:38.525Z,41.10
2018-01-20T05:28:38.496Z,42.90
2018-01-20T05:29:38.485Z,39.00
2018-01-20T05:30:38.474Z,42.50
2018-01-20T05:31:38.462Z,42.10
2018-01-20T05:32:38.451Z,39.80
2018-01-20T05:33:38.437Z,41.70
2018-01-20T05:34:38.432Z,43.30
2018-01-20T05:35:38.457Z,41.70
2018-01-20T05:36:38.441Z,42.80
2018-01-20T05:37:38.385Z,45.80
2018-01-20T05:38:38.373Z,46.70
2018-01-20T05:39:38.371Z,41.50
2018-01-20T05:40:38.348Z,42.30
2018-01-20T05:41:38.333Z,46.90
2018-01-20T05:42:38.321Z,45.40
2018-01-20T05:43:38.306Z,41.20
2018-01-20T05:44:38.296Z,43.30
2018-01-20T05:45:38.284Z,47.20
2018-01-20T05:46:38.267Z,45.70
2018-01-20T05:47:38.260Z,43.20
2018-01-20T05:48:38.244Z,42.30
2018-01-20T05:49:38.228Z,43.90
2018-01-20T05:50:38.220Z,40.70
2018-01-20T05:51:38.213Z,43.30
2018-01-20T05:52:38.197Z,43.10
2018-01-20T05:53:38.184Z,40.80
2018-01-20T05:54:38.165Z,41.10
2018-01-20T05:55:38.157Z,40.00
2018-01-20T05:56:38.140Z,43.40
2018-01-20T05:57:38.152Z,44.60
2018-01-20T05:58:38.118Z,43.90
2018-01-20T05:59:38.106Z,40.30
2018-01-20T06:00:38.096Z,43.00
2018-01-20T06:01:38.082Z,41.60
2018-01-20T06:02:38.065Z,40.40
2018-01-20T06:03:38.053Z,42.50
2018-01-20T06:04:38.041Z,42.50
2018-01-20T06:05:38.036Z,46.60
2018-01-20T06:06:38.018Z,42.60
2018-01-20T06:07:38.007Z,42.30
2018-01-20T06:08:37.994Z,42.70
2018-01-20T06:09:37.985Z,44.50
2018-01-20T06:10:37.966Z,42.60
2018-01-20T06:11:37.958Z,46.10
2018-01-20T06:12:37.943Z,43.30
2018-01-20T06:13:37.924Z,40.80
2018-01-20T06:14:37.915Z,43.00
2018-01-20T06:15:37.905Z,41.40
2018-01-20T06:16:37.901Z,35.70
2018-01-20T06:17:37.877Z,42.30
2018-01-20T06:18:37.868Z,43.60
2018-01-20T06:19:37.854Z,41.30
2018-01-20T06:20:37.836Z,40.10
2018-01-20T06:21:37.830Z,41.40
2018-01-20T06:22:37.815Z,38.80
2018-01-20T06:23:37.804Z,41.60
2018-01-20T06:24:37.786Z,37.20
2018-01-20T06:25:37.775Z,37.70
2018-01-20T06:26:37.773Z,38.70
2018-01-20T06:27:37.757Z,42.50
2018-01-20T06:28:37.742Z,37.30
2018-01-20T06:29:37.749Z,42.40
2018-01-20T06:30:37.726Z,36.20
2018-01-20T06:31:37.701Z,36.20
2018-01-20T06:32:37.693Z,40.20
2018-01-20T06:33:37.677Z,38.30
2018-01-20T06:34:37.661Z,33.90
2018-01-20T06:35:37.655Z,38.90
2018-01-20T06:36:37.662Z,38.70
2018-01-20T06:37:37.626Z,37.70
2018-01-20T06:38:37.616Z,38.50
2018-01-20T06:39:37.607Z,40.90
2018-01-20T06:40:37.587Z,36.10
2018-01-20T06:41:37.577Z,37.30
2018-01-20T06:42:37.560Z,33.90
2018-01-20T06:43:37.548Z,37.90
2018-01-20T06:44:37.585Z,38.00
2018-01-20T06:45:37.548Z,40.30
2018-01-20T06:46:37.513Z,37.20
2018-01-20T06:47:37.517Z,35.80
2018-01-20T06:48:37.500Z,38.80
2018-01-20T06:49:37.478Z,40.30
2018-01-20T06:50:37.465Z,41.60
2018-01-20T06:51:37.449Z,41.80
2018-01-20T06:52:37.449Z,38.10
2018-01-20T06:53:37.445Z,41.30
2018-01-20T06:54:37.414Z,36.30
2018-01-20T06:55:37.442Z,41.00
2018-01-20T06:56:37.391Z,35.80
2018-01-20T06:57:37.378Z,44.30
2018-01-20T06:58:37.377Z,36.60
2018-01-20T06:59:37.356Z,38.20
2018-01-20T07:00:37.340Z,38.30
2018-01-20T07:01:37.327Z,32.20
2018-01-20T07:02:37.325Z,38.40
2018-01-20T07:03:37.331Z,38.00
2018-01-20T07:04:37.289Z,39.90
2018-01-20T07:05:37.274Z,39.80
2018-01-20T07:06:37.271Z,39.80
2018-01-20T07:07:37.250Z,45.10
2018-01-20T07:08:37.240Z,36.40
2018-01-20T07:09:37.226Z,41.40
2018-01-20T07:10:37.215Z,45.40
2018-01-20T07:11:37.216Z,39.80
2018-01-20T07:12:37.191Z,40.40
2018-01-20T07:13:37.178Z,40.80
2018-01-20T07:14:37.164Z,43.50
2018-01-20T07:15:37.151Z,40.90
2018-01-20T07:16:37.140Z,41.00
2018-01-20T07:17:37.130Z,40.30
2018-01-20T07:18:37.113Z,42.50
2018-01-20T07:19:37.101Z,43.70
2018-01-20T07:20:37.092Z,40.40
2018-01-20T07:21:37.078Z,47.80
2018-01-20T07:22:37.064Z,45.70
2018-01-20T07:23:37.056Z,45.80
2018-01-20T07:24:37.041Z,40.90
2018-01-20T07:25:37.029Z,43.50
2018-01-20T07:26:37.031Z,45.50
2018-01-20T07:27:37.003Z,42.60
2018-01-20T07:28:36.989Z,43.90
2018-01-20T07:29:36.974Z,45.70
2018-01-20T07:30:36.965Z,45.60
2018-01-20T07:31:36.955Z,43.00
2018-01-20T07:32:36.938Z,44.60
2018-01-20T07:33:36.956Z,45.10
2018-01-20T07:34:36.919Z,50.40
2018-01-20T07:35:36.903Z,49.60
2018-01-20T07:36:36.898Z,49.00
2018-01-20T07:37:36.880Z,50.60
2018-01-20T07:38:36.867Z,50.10
2018-01-20T07:39:36.857Z,50.90
2018-01-20T07:40:36.840Z,46.50
2018-01-20T07:41:36.828Z,44.90
2018-01-20T07:42:36.821Z,47.60
2018-01-20T07:43:36.808Z,45.30
2018-01-20T07:44:36.795Z,46.80
2018-01-20T07:45:36.777Z,41.50
2018-01-20T07:46:36.764Z,45.10
2018-01-20T07:47:36.771Z,51.50
2018-01-20T07:48:36.742Z,49.50
2018-01-20T07:49:36.734Z,44.00
2018-01-20T07:50:36.715Z,44.50
2018-01-20T07:51:36.705Z,43.10
2018-01-20T07:52:36.811Z,49.60
2018-01-20T07:53:36.682Z,45.90
2018-01-20T07:54:36.682Z,45.80
2018-01-20T07:55:36.660Z,45.80
2018-01-20T07:56:36.642Z,41.70
2018-01-20T07:57:36.642Z,43.70
2018-01-20T07:58:36.624Z,44.20
2018-01-20T07:59:36.609Z,43.80
2018-01-20T08:00:36.595Z,42.10
2018-01-20T08:01:36.591Z,40.90
2018-01-20T08:02:36.572Z,43.00
2018-01-20T08:03:36.558Z,43.20
2018-01-20T08:04:36.547Z,44.50
2018-01-20T08:05:36.536Z,42.50
2018-01-20T08:06:36.535Z,40.00
2018-01-20T08:07:36.509Z,39.40
2018-01-20T08:08:36.503Z,40.70
2018-01-20T08:09:36.490Z,36.50
2018-01-20T08:10:36.530Z,40.10
2018-01-20T08:11:36.463Z,40.30
2018-01-20T08:12:36.490Z,38.60
2018-01-20T08:13:36.437Z,35.10
2018-01-20T08:14:36.445Z,34.80
2018-01-20T08:15:36.414Z,34.00
2018-01-20T08:16:36.402Z,34.50
2018-01-20T08:17:36.394Z,37.80
2018-01-20T08:18:36.376Z,37.30
2018-01-20T08:19:36.415Z,34.30
2018-01-20T08:20:36.350Z,37.30
2018-01-20T08:21:36.342Z,36.20
2018-01-20T08:22:36.328Z,33.00
2018-01-20T08:23:36.325Z,34.60
2018-01-20T08:24:36.304Z,48.80
2018-01-20T08:25:36.292Z,35.60
2018-01-20T08:26:36.279Z,37.90
2018-01-20T08:27:36.263Z,32.60
2018-01-20T08:28:36.263Z,41.90
2018-01-20T08:29:36.247Z,33.20
2018-01-20T08:30:36.233Z,34.10
2018-01-20T08:31:36.218Z,29.80
2018-01-20T08:32:36.206Z,33.60
2018-01-20T08:33:36.199Z,31.90
2018-01-20T08:34:36.279Z,33.40
2018-01-20T08:35:36.210Z,33.90
2018-01-20T08:36:36.165Z,29.30
2018-01-20T08:37:36.144Z,31.30
2018-01-20T08:38:36.152Z,33.10
2018-01-20T08:39:36.122Z,27.50
2018-01-20T08:40:36.121Z,29.40
2018-01-20T08:41:36.098Z,28.00
2018-01-20T08:42:36.094Z,25.70
2018-01-20T08:43:36.085Z,29.70
2018-01-20T08:44:36.064Z,27.00
2018-01-20T08:45:36.051Z,29.20
2018-01-20T08:46:36.046Z,26.30
2018-01-20T08:47:36.032Z,22.30
2018-01-20T08:48:36.026Z,21.40
2018-01-20T08:49:36.055Z,25.10
2018-01-20T08:50:36.007Z,26.90
2018-01-20T08:51:36.012Z,24.00
2018-01-20T08:52:35.972Z,25.60
2018-01-20T08:53:35.959Z,26.00
2018-01-20T08:54:35.948Z,20.90
2018-01-20T08:55:35.958Z,26.80
2018-01-20T08:56:35.937Z,22.30
2018-01-20T08:57:35.920Z,22.60
2018-01-20T08:58:35.920Z,25.20
2018-01-20T08:59:35.897Z,23.70
2018-01-20T09:00:35.901Z,24.70
2018-01-20T09:01:35.872Z,22.60
2018-01-20T09:02:35.870Z,26.70
2018-01-20T09:03:35.852Z,24.20
2018-01-20T09:04:35.840Z,23.90
2018-01-20T09:05:35.835Z,26.10
2018-01-20T09:06:35.821Z,22.20
2018-01-20T09:07:35.813Z,22.00
2018-01-20T09:08:35.798Z,24.30
2018-01-20T09:09:35.790Z,26.00
2018-01-20T09:10:35.780Z,25.10
2018-01-20T09:11:35.795Z,25.80
2018-01-20T09:12:35.772Z,25.20
2018-01-20T09:13:35.743Z,25.50
2018-01-20T09:14:35.728Z,23.50
2018-01-20T09:15:35.721Z,22.90
2018-01-20T09:16:35.707Z,23.60
2018-01-20T09:17:35.706Z,23.50
2018-01-20T09:18:35.732Z,21.10
2018-01-20T09:19:35.774Z,21.70
2018-01-20T09:20:35.663Z,23.40
2018-01-20T09:21:35.655Z,18.90
2018-01-20T09:22:35.645Z,20.00
2018-01-20T09:23:35.633Z,21.90
2018-01-20T09:24:35.625Z,17.10
2018-01-20T09:25:35.616Z,20.70
2018-01-20T09:26:35.598Z,19.70
2018-01-20T09:27:35.583Z,17.40
2018-01-20T09:28:35.576Z,17.60
2018-01-20T09:29:35.568Z,18.80
2018-01-20T09:30:35.555Z,20.50
2018-01-20T09:31:35.571Z,16.80
2018-01-20T09:32:35.531Z,18.50
2018-01-20T09:33:35.538Z,17.80
2018-01-20T09:34:35.531Z,17.50
2018-01-20T09:35:35.504Z,17.70
2018-01-20T09:36:35.498Z,17.10
2018-01-20T09:37:35.493Z,17.20
2018-01-20T09:38:35.474Z,15.80
2018-01-20T09:39:35.470Z,16.80
2018-01-20T09:40:35.465Z,16.20
2018-01-20T09:41:35.449Z,16.90
2018-01-20T09:42:35.461Z,15.00
2018-01-20T09:43:35.486Z,18.30
2018-01-20T09:44:35.930Z,16.60
2018-01-20T09:45:35.481Z,16.70
2018-01-20T09:46:35.407Z,15.40
2018-01-20T09:47:35.452Z,13.70
2018-01-20T09:48:35.432Z,14.10
2018-01-20T09:49:35.444Z,13.00
2018-01-20T09:50:35.538Z,14.50
2018-01-20T09:51:35.391Z,15.00
2018-01-20T09:52:35.363Z,16.00
2018-01-20T09:53:35.337Z,12.50
2018-01-20T09:54:35.379Z,15.90
2018-01-20T09:55:35.321Z,15.30
2018-01-20T09:56:35.325Z,13.40
2018-01-20T09:57:35.305Z,17.70
2018-01-20T09:58:35.294Z,12.50
2018-01-20T09:59:35.282Z,15.80
2018-01-20T10:00:35.276Z,12.40
2018-01-20T10:01:35.266Z,12.80
2018-01-20T10:02:35.255Z,13.50
2018-01-20T10:03:35.253Z,14.50
2018-01-20T10:04:35.240Z,12.20
2018-01-20T10:05:35.232Z,14.70
2018-01-20T10:06:35.237Z,12.80
2018-01-20T10:07:35.217Z,15.20
2018-01-20T10:08:35.222Z,11.90
2018-01-20T10:09:35.216Z,15.40
2018-01-20T10:10:35.185Z,13.00
2018-01-20T10:11:35.176Z,14.00
2018-01-20T10:12:35.186Z,12.20
2018-01-20T10:13:35.162Z,10.60
2018-01-20T10:14:35.185Z,15.70
2018-01-20T10:15:35.138Z,13.50
2018-01-20T10:16:35.163Z,12.30
2018-01-20T10:17:35.122Z,15.40
2018-01-20T10:18:35.117Z,13.60
2018-01-20T10:19:35.133Z,11.10
2018-01-20T10:20:35.093Z,14.10
2018-01-20T10:21:35.076Z,16.60
2018-01-20T10:22:35.071Z,12.80
2018-01-20T10:23:35.058Z,11.10
2018-01-20T10:24:35.049Z,13.20
2018-01-20T10:25:35.041Z,13.00
2018-01-20T10:26:35.039Z,16.30
2018-01-20T10:27:35.015Z,12.50
2018-01-20T10:28:35.009Z,14.30
2018-01-20T10:29:34.996Z,14.50
2018-01-20T10:30:34.987Z,13.00
2018-01-20T10:31:34.981Z,12.50
2018-01-20T10:32:34.971Z,14.70
2018-01-20T10:33:34.956Z,13.40
2018-01-20T10:34:34.942Z,17.30
2018-01-20T10:35:34.938Z,11.70
2018-01-20T10:36:34.929Z,13.10
2018-01-20T10:37:34.916Z,13.50
2018-01-20T10:38:34.903Z,15.00
2018-01-20T10:39:34.893Z,10.40
2018-01-20T10:40:34.903Z,13.20
2018-01-20T10:41:34.885Z,12.60
2018-01-20T10:42:34.869Z,9.80
2018-01-20T10:43:34.867Z,10.30
2018-01-20T10:44:34.846Z,11.30
2018-01-20T10:45:34.831Z,13.90
2018-01-20T10:46:34.822Z,12.20
2018-01-20T10:47:34.824Z,10.30
2018-01-20T10:48:34.817Z,13.00
2018-01-20T10:49:34.797Z,13.70
2018-01-20T10:50:34.793Z,15.80
2018-01-20T10:51:34.765Z,12.30
2018-01-20T10:52:34.770Z,13.30
2018-01-20T10:53:34.740Z,12.70
2018-01-20T10:54:34.731Z,13.00
2018-01-20T10:55:34.727Z,18.70
2018-01-20T10:56:34.716Z,9.30
2018-01-20T10:57:34.715Z,12.40
2018-01-20T10:58:34.692Z,10.00
2018-01-20T10:59:34.684Z,12.80
2018-01-20T11:00:34.669Z,14.20
2018-01-20T11:01:34.659Z,8.80
2018-01-20T11:02:34.650Z,13.60
2018-01-20T11:03:34.639Z,13.00
2018-01-20T11:04:34.628Z,10.50
2018-01-20T11:05:34.609Z,13.10
2018-01-20T11:06:34.604Z,10.70
2018-01-20T11:07:34.631Z,9.20
2018-01-20T11:08:34.588Z,13.80
2018-01-20T11:09:34.611Z,12.80
2018-01-20T11:10:34.570Z,11.70
2018-01-20T11:11:34.588Z,8.90
2018-01-20T11:12:34.610Z,12.50
2018-01-20T11:13:34.536Z,15.00
2018-01-20T11:14:34.629Z,12.80
2018-01-20T11:15:34.552Z,8.80
2018-01-20T11:16:34.628Z,12.30
2018-01-20T11:17:34.789Z,9.80
2018-01-20T11:18:34.574Z,10.20
2018-01-20T11:19:34.685Z,13.50
2018-01-20T11:20:34.554Z,10.70
2018-01-20T11:21:34.719Z,11.90
2018-01-20T11:22:34.562Z,11.00
2018-01-20T11:23:34.578Z,12.10
2018-01-20T11:24:34.551Z,12.80
2018-01-20T11:25:34.417Z,11.50
2018-01-20T11:26:34.416Z,14.80
2018-01-20T11:27:34.441Z,12.10
2018-01-20T11:28:34.461Z,11.30
2018-01-20T11:29:34.486Z,12.80
2018-01-20T11:30:34.366Z,11.80
2018-01-20T11:31:34.342Z,12.00
2018-01-20T11:32:34.338Z,13.60
2018-01-20T11:33:34.368Z,10.20
2018-01-20T11:34:34.343Z,10.30
2018-01-20T11:35:34.557Z,13.30
2018-01-20T11:36:34.331Z,11.80
2018-01-20T11:37:34.280Z,10.20
2018-01-20T11:38:34.306Z,9.60
2018-01-20T11:39:34.290Z,10.00
2018-01-20T11:40:34.250Z,11.90
2018-01-20T11:41:34.234Z,11.70
2018-01-20T11:42:34.216Z,12.30
2018-01-20T11:43:34.209Z,9.50
2018-01-20T11:44:34.204Z,12.50
2018-01-20T11:45:34.221Z,10.40
2018-01-20T11:46:34.182Z,10.40
2018-01-20T11:47:34.166Z,9.60
2018-01-20T11:48:34.162Z,12.80
2018-01-20T11:49:34.189Z,10.30
2018-01-20T11:50:34.129Z,12.40
2018-01-20T11:51:34.121Z,13.40
2018-01-20T11:52:34.116Z,10.10
2018-01-20T11:53:34.117Z,13.60
2018-01-20T11:54:34.124Z,8.80
2018-01-20T11:55:34.131Z,13.30
2018-01-20T11:56:34.079Z,15.90
2018-01-20T11:57:34.077Z,10.40
2018-01-20T11:58:34.084Z,12.20
2018-01-20T11:59:34.151Z,12.10
2018-01-20T12:00:34.033Z,11.70
2018-01-20T12:01:34.024Z,13.60
2018-01-20T12:02:34.012Z,12.60
2018-01-20T12:03:34.062Z,13.60
2018-01-20T12:04:34.010Z,10.90
2018-01-20T12:05:34.071Z,10.50
2018-01-20T12:06:33.974Z,13.00
2018-01-20T12:07:34.013Z,12.00
2018-01-20T12:08:34.028Z,11.40
2018-01-20T12:09:33.957Z,11.40
2018-01-20T12:10:33.952Z,11.50
2018-01-20T12:11:34.057Z,10.70
2018-01-20T12:12:36.610Z,13.40
2018-01-20T12:13:34.340Z,12.40
2018-01-20T12:14:36.519Z,12.90
2018-01-20T12:15:33.901Z,13.10
2018-01-20T12:16:33.872Z,11.20
2018-01-20T12:17:33.861Z,9.70
2018-01-20T12:18:33.886Z,12.00
2018-01-20T12:19:33.835Z,11.80
2018-01-20T12:20:33.822Z,10.40
2018-01-20T12:21:34.742Z,14.50
2018-01-20T12:22:33.795Z,13.20
2018-01-20T12:23:35.756Z,11.70
2018-01-20T12:24:35.477Z,11.70
2018-01-20T12:25:36.283Z,11.40
2018-01-20T12:26:36.048Z,11.10
2018-01-20T12:27:35.768Z,10.70
2018-01-20T12:28:36.467Z,12.40
2018-01-20T12:29:35.916Z,10.90
2018-01-20T12:30:35.038Z,9.10
2018-01-20T12:31:38.537Z,9.90
2018-01-20T12:32:37.190Z,12.90
2018-01-20T12:33:37.980Z,9.80
2018-01-20T12:34:35.638Z,10.00
2018-01-20T12:35:38.479Z,12.90
2018-01-20T12:36:38.044Z,12.10
2018-01-20T12:37:36.846Z,15.60
2018-01-20T12:38:35.957Z,11.40
2018-01-20T12:39:35.518Z,11.70
2018-01-20T12:40:36.687Z,10.20
2018-01-20T12:41:38.069Z,14.10
2018-01-20T12:42:35.710Z,10.70
2018-01-20T12:43:35.254Z,10.60
2018-01-20T12:44:33.567Z,12.60
2018-01-20T12:45:33.558Z,11.10
2018-01-20T12:46:35.288Z,9.30
2018-01-20T12:47:35.257Z,12.00
2018-01-20T12:48:34.975Z,13.70
2018-01-20T12:49:33.515Z,11.30
2018-01-20T12:50:35.520Z,11.50
2018-01-20T12:51:33.481Z,11.50
2018-01-20T12:52:33.478Z,9.30
2018-01-20T12:53:33.464Z,13.00
2018-01-20T12:54:33.456Z,10.70
2018-01-20T12:55:33.449Z,11.70
2018-01-20T12:56:33.425Z,11.40
2018-01-20T12:57:33.422Z,10.30